Gary, Indiana
Current Conditions -  °F | °C
As of 11:35 AM on Friday 19 Dec 2014 (Local Time) from KIGQ Reporting Station
Overcast Overcast  
Wind Chill: 32°   Ceiling: 2300
Heat Index: 32°   Visibility: 10mi
Dew Point: 24°   Wind: 0mph
Humidity: 73%   Direction: NA
Pressure: 30.3"   Gusts: NA
Location:  41.6°N, 87.34°W
Report Text: KIGQ 191735Z AUTO 00000KT 10SM OVC023 00/M04 A3030 RMK AO2 T10011045
Loading
Personal Weather Stations






























Interactive Weather Map New forecast layout! Learn more

10-Day Weather Forecast

Advertisements
Track Severe Weather on mobile